Bandera, Texas
Current Conditions -  °F | °C
As of 11:35 AM on Friday 26 Dec 2014 (Local Time) from KERV Reporting Station
Overcast Overcast  
Wind Chill: 61°   Ceiling: 1300
Heat Index: 61°   Visibility: 10mi
Dew Point: 56°   Wind: 12mph
Humidity: 85%   Direction: 180°S
Pressure: 29.95"   Gusts: 18mph
Location:  29.73°N, 99.07°W
Report Text: KERV 261735Z AUTO 18010G16KT 10SM BKN013 BKN019 OVC025 16/14 A2995 RMK AO2 T01610135
Loading
Personal Weather Stations






























Interactive Weather Map New forecast layout! Learn more

10-Day Weather Forecast

Advertisements
Track Severe Weather on mobile